»·PEaware :: N550ER KSAN-KSAN

N550ER :: KSAN-KSAN

FLIGHT INFORMATION

Flight Status: Arrived
Operator: Privately registered:
United States
More flights under this callsign
Pilot: Carlos A. (16805)
Aircraft: CESSNA 172 SKYHAWK
(C172)
More flights by this aircraft type
Origin: KSAN San Diego Intl-Lindbergh
United States
Destination: KSAN San Diego Intl-Lindbergh
United States
More flights between these airports :: More routes between these airports
Route: +
File this flight plan on PilotEdge
Remarks:
Altitude:
(Current/Filed)
0ft
Speed:
(Current/Filed)
0kts
Departed: 06-Dec-17 09:58 AM
Arrived: 06-Dec-17 10:43 AM
Distance/Time
Traveled:
0nm/0:45
Distance/Time
To Go:
Arrived

Flight Plot

Page will automatically refresh every two minutes.


Map Options




Map Legend


Flown Route
Filed Route
Departure Airport
Arrival Airport
Navaid (VOR, NDB)
Fix

Horizontal Profiles

Position Reports

Time Latitude Longitude Heading Altitude Ground
Speed
06-Dec-17 09:37 32.730227 -117.175926 285 18ft 0kts
06-Dec-17 09:38 32.730228 -117.175929 285 18ft 0kts
06-Dec-17 09:39 32.730229 -117.175933 285 18ft 0kts
06-Dec-17 09:40 32.730230 -117.175936 285 18ft 0kts
06-Dec-17 09:41 32.730231 -117.175940 285 18ft 0kts
06-Dec-17 09:42 32.730231 -117.175943 285 18ft 0kts
06-Dec-17 09:43 32.730232 -117.175947 285 18ft 0kts
06-Dec-17 09:44 32.730233 -117.175951 285 18ft 0kts
06-Dec-17 09:45 32.730234 -117.175954 285 18ft 0kts
06-Dec-17 09:46 32.730235 -117.175956 285 18ft 0kts
06-Dec-17 09:47 32.730416 -117.175964 52 18ft 0kts
06-Dec-17 09:48 32.731538 -117.176218 341 18ft 5kts
06-Dec-17 09:49 32.731609 -117.176151 179 18ft 0kts
06-Dec-17 09:50 32.731607 -117.176151 179 18ft 0kts
06-Dec-17 09:51 32.731605 -117.176151 179 18ft 0kts
06-Dec-17 09:52 32.731603 -117.176151 179 18ft 0kts
06-Dec-17 09:53 32.731304 -117.176225 169 18ft 3kts
06-Dec-17 09:54 32.730687 -117.175130 183 18ft 2kts
06-Dec-17 09:55 32.730682 -117.175130 184 18ft 0kts
06-Dec-17 09:56 32.730670 -117.175130 177 18ft 0kts
06-Dec-17 09:57 32.730666 -117.175130 176 18ft 0kts
06-Dec-17 09:58 32.730657 -117.175129 175 18ft 0kts
06-Dec-17 09:59 32.730655 -117.175129 175 18ft 0kts
06-Dec-17 10:00 32.730655 -117.175129 175 18ft 0kts
06-Dec-17 10:01 32.730654 -117.175129 175 18ft 0kts
06-Dec-17 10:02 32.730223 -117.175362 245 18ft 11kts
06-Dec-17 10:03 32.733991 -117.191183 292 385ft 69kts
06-Dec-17 10:04 32.738423 -117.213835 306 1183ft 78kts
06-Dec-17 10:05 32.757097 -117.229741 329 1892ft 84kts
06-Dec-17 10:06 32.776216 -117.246880 318 2553ft 88kts
06-Dec-17 10:07 32.797725 -117.265827 321 2592ft 101kts
06-Dec-17 10:08 32.819849 -117.283892 340 2334ft 97kts
06-Dec-17 10:09 32.838451 -117.269515 85 2117ft 94kts
06-Dec-17 10:10 32.853899 -117.246473 31 2119ft 89kts
06-Dec-17 10:11 32.877209 -117.235711 16 2226ft 89kts
06-Dec-17 10:12 32.901637 -117.229295 358 2509ft 90kts
06-Dec-17 10:13 32.925825 -117.225034 40 2692ft 94kts
06-Dec-17 10:14 32.938665 -117.198601 66 3314ft 92kts
06-Dec-17 10:15 32.944850 -117.168703 79 3810ft 93kts
06-Dec-17 10:16 32.959130 -117.158413 278 3917ft 96kts
06-Dec-17 10:17 32.953647 -117.189169 246 4114ft 100kts
06-Dec-17 10:18 32.939244 -117.218124 226 4067ft 101kts
06-Dec-17 10:19 32.916920 -117.237684 215 3814ft 100kts
06-Dec-17 10:20 32.893404 -117.254917 198 3928ft 99kts
06-Dec-17 10:21 32.865728 -117.255169 158 3650ft 102kts
06-Dec-17 10:22 32.854096 -117.226511 99 3481ft 102kts
06-Dec-17 10:23 32.851530 -117.193369 108 3796ft 101kts
06-Dec-17 10:24 32.835450 -117.166183 128 3644ft 101kts
06-Dec-17 10:25 32.816562 -117.141794 111 3771ft 103kts
06-Dec-17 10:26 32.809021 -117.109289 102 4128ft 102kts
06-Dec-17 10:27 32.804133 -117.074631 100 4256ft 108kts
06-Dec-17 10:28 32.798031 -117.039672 107 4385ft 107kts
06-Dec-17 10:29 32.793846 -117.004612 94 4478ft 107kts
06-Dec-17 10:30 32.788411 -116.970043 103 4467ft 107kts
06-Dec-17 10:31 32.781716 -116.935542 105 4462ft 106kts
06-Dec-17 10:32 32.774502 -116.901688 101 4583ft 105kts
06-Dec-17 10:33 32.761842 -116.872053 165 4452ft 107kts
06-Dec-17 10:34 32.733570 -116.876461 195 4369ft 102kts
06-Dec-17 10:35 32.705587 -116.882937 190 4110ft 101kts
06-Dec-17 10:36 32.678557 -116.889347 192 4027ft 92kts
06-Dec-17 10:37 32.665392 -116.904558 278 4085ft 87kts
06-Dec-17 10:38 32.671889 -116.934789 287 4285ft 96kts
06-Dec-17 10:39 32.679776 -116.965245 283 4236ft 95kts
06-Dec-17 10:40 32.686905 -116.994492 284 3779ft 84kts
06-Dec-17 10:41 32.692999 -117.021786 285 3188ft 84kts
06-Dec-17 10:42 32.699141 -117.048299 281 2807ft 84kts
06-Dec-17 10:43 32.705659 -117.074926 284 2147ft 83kts
06-Dec-17 10:44 32.712396 -117.100996 282 1709ft 82kts
06-Dec-17 10:45 32.718264 -117.127085 285 1293ft 81kts
06-Dec-17 10:46 32.724482 -117.152719 284 919ft 82kts
06-Dec-17 10:47 32.730885 -117.178842 288 66ft 51kts
06-Dec-17 10:48 32.732297 -117.183751 0 18ft 0kts

Navigation Log

Ident Type
1. KSAN Airport
2. KSAN Airport